sensor_id;sensor_type;location;lat;lon;timestamp;pressure;altitude;pressure_sealevel;temperature;humidity
33506;BME280;19843;51.040;13.782;2024-03-23T00:55:12;99505.47;;;12.92;73.38
33506;BME280;19843;51.040;13.782;2024-03-23T00:57:39;99507.41;;;12.88;73.73
33506;BME280;19843;51.040;13.782;2024-03-23T01:00:05;99505.34;;;12.85;73.49
33506;BME280;19843;51.040;13.782;2024-03-23T01:02:32;99510.31;;;12.69;74.01
33506;BME280;19843;51.040;13.782;2024-03-23T01:04:58;99515.47;;;12.67;74.03
33506;BME280;19843;51.040;13.782;2024-03-23T01:07:24;99520.00;;;12.75;73.58
33506;BME280;19843;51.040;13.782;2024-03-23T01:09:50;99513.19;;;12.72;73.79
33506;BME280;19843;51.040;13.782;2024-03-23T01:12:17;99516.06;;;12.79;73.84
33506;BME280;19843;51.040;13.782;2024-03-23T01:14:42;99518.13;;;12.82;73.97
33506;BME280;19843;51.040;13.782;2024-03-23T01:17:09;99511.22;;;12.50;75.95
33506;BME280;19843;51.040;13.782;2024-03-23T01:19:34;99505.19;;;13.01;74.43
33506;BME280;19843;51.040;13.782;2024-03-23T01:22:01;99490.59;;;12.88;74.58
33506;BME280;19843;51.040;13.782;2024-03-23T01:24:26;99479.47;;;12.92;74.56
33506;BME280;19843;51.040;13.782;2024-03-23T01:26:53;99473.25;;;12.79;74.39
33506;BME280;19843;51.040;13.782;2024-03-23T01:29:18;99480.25;;;12.66;75.49
33506;BME280;19843;51.040;13.782;2024-03-23T01:31:45;99470.34;;;12.72;74.98
33506;BME280;19843;51.040;13.782;2024-03-23T01:34:11;99477.22;;;12.25;76.95
33506;BME280;19843;51.040;13.782;2024-03-23T01:36:37;99471.78;;;12.59;75.58
33506;BME280;19843;51.040;13.782;2024-03-23T01:39:03;99473.06;;;11.92;78.36
33506;BME280;19843;51.040;13.782;2024-03-23T01:41:29;99470.81;;;12.24;76.67
33506;BME280;19843;51.040;13.782;2024-03-23T01:43:55;99468.38;;;12.46;76.45
33506;BME280;19843;51.040;13.782;2024-03-23T01:46:22;99471.16;;;12.46;76.81
33506;BME280;19843;51.040;13.782;2024-03-23T01:48:47;99454.09;;;12.54;76.15
33506;BME280;19843;51.040;13.782;2024-03-23T01:51:14;99456.84;;;12.51;76.45
33506;BME280;19843;51.040;13.782;2024-03-23T01:53:40;99444.59;;;12.63;76.38
33506;BME280;19843;51.040;13.782;2024-03-23T01:56:07;99440.78;;;12.48;76.63
33506;BME280;19843;51.040;13.782;2024-03-23T01:58:32;99452.19;;;11.67;80.21
33506;BME280;19843;51.040;13.782;2024-03-23T02:00:59;99448.06;;;12.03;78.57
33506;BME280;19843;51.040;13.782;2024-03-23T02:03:26;99449.03;;;12.37;77.25
33506;BME280;19843;51.040;13.782;2024-03-23T02:05:53;99438.22;;;12.36;77.38
33506;BME280;19843;51.040;13.782;2024-03-23T02:08:23;99439.81;;;12.37;77.72
33506;BME280;19843;51.040;13.782;2024-03-23T02:10:50;99434.03;;;12.49;76.96
33506;BME280;19843;51.040;13.782;2024-03-23T02:13:17;99427.44;;;12.64;76.15
33506;BME280;19843;51.040;13.782;2024-03-23T02:15:43;99435.06;;;12.67;76.50
33506;BME280;19843;51.040;13.782;2024-03-23T02:18:10;99424.59;;;12.61;76.89
33506;BME280;19843;51.040;13.782;2024-03-23T02:20:37;99423.59;;;12.76;76.26
33506;BME280;19843;51.040;13.782;2024-03-23T02:23:13;99412.31;;;12.69;76.37
33506;BME280;19843;51.040;13.782;2024-03-23T02:25:39;99415.25;;;12.79;76.72
33506;BME280;19843;51.040;13.782;2024-03-23T02:28:05;99411.53;;;12.72;76.92
33506;BME280;19843;51.040;13.782;2024-03-23T02:30:31;99398.06;;;12.81;75.94
33506;BME280;19843;51.040;13.782;2024-03-23T02:32:57;99403.31;;;12.86;75.29
33506;BME280;19843;51.040;13.782;2024-03-23T02:35:23;99388.75;;;13.03;75.47
33506;BME280;19843;51.040;13.782;2024-03-23T02:37:49;99394.13;;;12.86;75.93
33506;BME280;19843;51.040;13.782;2024-03-23T02:40:16;99393.78;;;12.91;75.17
33506;BME280;19843;51.040;13.782;2024-03-23T02:42:41;99388.81;;;13.07;74.65
33506;BME280;19843;51.040;13.782;2024-03-23T02:45:08;99379.41;;;13.22;74.37
33506;BME280;19843;51.040;13.782;2024-03-23T02:47:34;99386.75;;;13.04;75.02
33506;BME280;19843;51.040;13.782;2024-03-23T02:50:01;99390.81;;;13.06;75.12
33506;BME280;19843;51.040;13.782;2024-03-23T02:52:26;99381.09;;;13.00;75.49
33506;BME280;19843;51.040;13.782;2024-03-23T02:54:53;99375.81;;;12.92;76.26
33506;BME280;19843;51.040;13.782;2024-03-23T02:57:18;99377.94;;;12.72;77.36
33506;BME280;19843;51.040;13.782;2024-03-23T02:59:44;99380.09;;;12.82;76.78
33506;BME280;19843;51.040;13.782;2024-03-23T03:02:13;99375.81;;;12.92;76.63
33506;BME280;19843;51.040;13.782;2024-03-23T03:04:39;99379.06;;;12.67;77.63
33506;BME280;19843;51.040;13.782;2024-03-23T03:07:05;99382.44;;;12.80;77.56
33506;BME280;19843;51.040;13.782;2024-03-23T03:09:31;99373.84;;;12.96;76.78
33506;BME280;19843;51.040;13.782;2024-03-23T03:11:58;99363.59;;;12.77;76.92
33506;BME280;19843;51.040;13.782;2024-03-23T03:14:24;99352.84;;;12.79;76.92
33506;BME280;19843;51.040;13.782;2024-03-23T03:16:50;99351.75;;;12.87;76.70
33506;BME280;19843;51.040;13.782;2024-03-23T03:19:16;99354.56;;;12.91;76.30
33506;BME280;19843;51.040;13.782;2024-03-23T03:21:42;99345.06;;;12.65;77.40
33506;BME280;19843;51.040;13.782;2024-03-23T03:24:09;99328.50;;;12.23;80.73
33506;BME280;19843;51.040;13.782;2024-03-23T03:26:34;99331.59;;;12.44;79.88
33506;BME280;19843;51.040;13.782;2024-03-23T03:29:02;99346.59;;;12.59;78.58
33506;BME280;19843;51.040;13.782;2024-03-23T03:31:27;99344.34;;;12.72;77.59
33506;BME280;19843;51.040;13.782;2024-03-23T03:33:54;99335.91;;;12.68;77.18
33506;BME280;19843;51.040;13.782;2024-03-23T03:36:19;99333.44;;;12.63;77.93
33506;BME280;19843;51.040;13.782;2024-03-23T03:38:46;99332.81;;;12.47;77.64
33506;BME280;19843;51.040;13.782;2024-03-23T03:41:11;99334.16;;;12.26;79.00
33506;BME280;19843;51.040;13.782;2024-03-23T03:43:38;99331.69;;;12.51;77.68
33506;BME280;19843;51.040;13.782;2024-03-23T03:46:04;99327.22;;;12.47;77.86
33506;BME280;19843;51.040;13.782;2024-03-23T03:48:30;99308.53;;;12.54;77.63
33506;BME280;19843;51.040;13.782;2024-03-23T03:50:55;99323.19;;;12.44;77.55
33506;BME280;19843;51.040;13.782;2024-03-23T03:53:22;99335.22;;;11.69;80.88
33506;BME280;19843;51.040;13.782;2024-03-23T03:55:47;99317.00;;;12.01;80.76
33506;BME280;19843;51.040;13.782;2024-03-23T03:58:14;99307.75;;;12.27;79.23
33506;BME280;19843;51.040;13.782;2024-03-23T04:00:39;99290.03;;;12.16;79.01
33506;BME280;19843;51.040;13.782;2024-03-23T04:03:06;99300.50;;;12.23;79.37
33506;BME280;19843;51.040;13.782;2024-03-23T04:05:31;99305.94;;;11.86;80.38
33506;BME280;19843;51.040;13.782;2024-03-23T04:07:58;99295.22;;;11.65;82.03
33506;BME280;19843;51.040;13.782;2024-03-23T04:10:24;99298.91;;;11.95;79.74
33506;BME280;19843;51.040;13.782;2024-03-23T04:12:50;99283.84;;;12.03;78.95
33506;BME280;19843;51.040;13.782;2024-03-23T04:15:16;99292.41;;;11.65;80.25
33506;BME280;19843;51.040;13.782;2024-03-23T04:17:42;99276.44;;;11.65;80.54
33506;BME280;19843;51.040;13.782;2024-03-23T04:20:08;99287.34;;;11.47;81.38
33506;BME280;19843;51.040;13.782;2024-03-23T04:22:37;99277.63;;;11.64;80.16
33506;BME280;19843;51.040;13.782;2024-03-23T04:25:02;99279.13;;;11.58;80.75
33506;BME280;19843;51.040;13.782;2024-03-23T04:27:35;99276.31;;;11.58;80.46
33506;BME280;19843;51.040;13.782;2024-03-23T04:30:01;99270.38;;;11.60;79.78
33506;BME280;19843;51.040;13.782;2024-03-23T04:32:29;99268.22;;;11.49;79.82
33506;BME280;19843;51.040;13.782;2024-03-23T04:34:54;99253.22;;;11.12;81.26
33506;BME280;19843;51.040;13.782;2024-03-23T04:37:21;99250.78;;;11.33;80.82
33506;BME280;19843;51.040;13.782;2024-03-23T04:39:48;99241.34;;;10.95;82.29
33506;BME280;19843;51.040;13.782;2024-03-23T04:42:15;99245.56;;;10.66;84.56
33506;BME280;19843;51.040;13.782;2024-03-23T04:44:41;99247.28;;;10.94;82.07
33506;BME280;19843;51.040;13.782;2024-03-23T04:47:07;99245.06;;;11.03;81.96
33506;BME280;19843;51.040;13.782;2024-03-23T04:49:34;99235.69;;;10.69;83.90
33506;BME280;19843;51.040;13.782;2024-03-23T04:52:05;99234.03;;;10.68;84.29
33506;BME280;19843;51.040;13.782;2024-03-23T04:54:31;99233.56;;;10.43;85.85
33506;BME280;19843;51.040;13.782;2024-03-23T04:56:58;99220.22;;;10.75;84.35
33506;BME280;19843;51.040;13.782;2024-03-23T04:59:24;99205.34;;;10.90;82.86
33506;BME280;19843;51.040;13.782;2024-03-23T05:01:51;99190.41;;;10.79;81.89
33506;BME280;19843;51.040;13.782;2024-03-23T05:04:17;99192.25;;;10.94;81.62
33506;BME280;19843;51.040;13.782;2024-03-23T05:06:43;99171.09;;;10.70;82.68
33506;BME280;19843;51.040;13.782;2024-03-23T05:09:09;99165.13;;;10.72;82.23
33506;BME280;19843;51.040;13.782;2024-03-23T05:11:38;99158.94;;;10.82;82.58
33506;BME280;19843;51.040;13.782;2024-03-23T05:14:04;99161.94;;;10.93;82.45
33506;BME280;19843;51.040;13.782;2024-03-23T05:16:30;99152.19;;;10.83;81.96
33506;BME280;19843;51.040;13.782;2024-03-23T05:18:56;99151.03;;;10.42;85.30
33506;BME280;19843;51.040;13.782;2024-03-23T05:21:22;99159.72;;;10.37;84.91
33506;BME280;19843;51.040;13.782;2024-03-23T05:23:48;99168.00;;;10.98;82.43
33506;BME280;19843;51.040;13.782;2024-03-23T05:26:14;99150.44;;;10.98;82.92
33506;BME280;19843;51.040;13.782;2024-03-23T05:28:40;99142.47;;;11.23;81.48
33506;BME280;19843;51.040;13.782;2024-03-23T05:31:06;99127.34;;;11.01;82.52
33506;BME280;19843;51.040;13.782;2024-03-23T05:33:34;99123.53;;;11.39;80.93
33506;BME280;19843;51.040;13.782;2024-03-23T05:36:01;99131.75;;;11.02;82.17
33506;BME280;19843;51.040;13.782;2024-03-23T05:38:29;99128.09;;;11.51;81.13
33506;BME280;19843;51.040;13.782;2024-03-23T05:40:59;99131.44;;;11.90;79.25
33506;BME280;19843;51.040;13.782;2024-03-23T05:43:26;99120.72;;;11.36;82.04
33506;BME280;19843;51.040;13.782;2024-03-23T05:48:22;99118.72;;;11.36;82.51
33506;BME280;19843;51.040;13.782;2024-03-23T05:50:48;99123.41;;;11.85;80.44
33506;BME280;19843;51.040;13.782;2024-03-23T05:53:16;99127.78;;;12.16;78.72
33506;BME280;19843;51.040;13.782;2024-03-23T05:55:41;99123.91;;;12.28;77.95
33506;BME280;19843;51.040;13.782;2024-03-23T05:58:08;99120.72;;;12.29;77.15
33506;BME280;19843;51.040;13.782;2024-03-23T06:00:34;99102.50;;;12.09;77.81
33506;BME280;19843;51.040;13.782;2024-03-23T06:03:01;99099.88;;;11.90;78.61
33506;BME280;19843;51.040;13.782;2024-03-23T06:05:26;99093.16;;;11.94;78.51
33506;BME280;19843;51.040;13.782;2024-03-23T06:07:53;99082.72;;;11.91;79.04
33506;BME280;19843;51.040;13.782;2024-03-23T06:10:18;99070.94;;;12.09;78.41
33506;BME280;19843;51.040;13.782;2024-03-23T06:12:48;99075.00;;;12.15;77.78
33506;BME280;19843;51.040;13.782;2024-03-23T06:15:14;99064.09;;;12.02;78.19
33506;BME280;19843;51.040;13.782;2024-03-23T06:17:41;99055.81;;;12.13;77.45
33506;BME280;19843;51.040;13.782;2024-03-23T06:20:07;99049.31;;;12.02;78.33
33506;BME280;19843;51.040;13.782;2024-03-23T06:22:33;99045.75;;;12.09;77.85
33506;BME280;19843;51.040;13.782;2024-03-23T06:24:59;99040.81;;;12.32;77.49
33506;BME280;19843;51.040;13.782;2024-03-23T06:27:25;99034.25;;;12.17;77.37
33506;BME280;19843;51.040;13.782;2024-03-23T06:29:51;99034.41;;;12.32;77.18
33506;BME280;19843;51.040;13.782;2024-03-23T06:32:17;99029.88;;;12.20;77.91
33506;BME280;19843;51.040;13.782;2024-03-23T06:34:43;99023.13;;;12.21;78.29
33506;BME280;19843;51.040;13.782;2024-03-23T06:37:10;99015.22;;;12.30;78.19
33506;BME280;19843;51.040;13.782;2024-03-23T06:39:36;99012.59;;;11.73;80.74
33506;BME280;19843;51.040;13.782;2024-03-23T06:42:03;98995.63;;;11.89;81.09
33506;BME280;19843;51.040;13.782;2024-03-23T06:44:29;98984.22;;;11.38;83.81
33506;BME280;19843;51.040;13.782;2024-03-23T06:46:56;98985.13;;;11.15;84.90
33506;BME280;19843;51.040;13.782;2024-03-23T06:49:22;98980.22;;;11.72;82.23
33506;BME280;19843;51.040;13.782;2024-03-23T06:51:49;98980.13;;;11.99;80.54
33506;BME280;19843;51.040;13.782;2024-03-23T06:54:16;98982.28;;;12.13;80.29
33506;BME280;19843;51.040;13.782;2024-03-23T06:56:46;98972.50;;;11.96;80.11
33506;BME280;19843;51.040;13.782;2024-03-23T06:59:11;98967.75;;;11.96;80.26
33506;BME280;19843;51.040;13.782;2024-03-23T07:01:38;98959.44;;;12.07;79.95
33506;BME280;19843;51.040;13.782;2024-03-23T07:04:04;98972.97;;;12.01;80.07
33506;BME280;19843;51.040;13.782;2024-03-23T07:06:31;98965.50;;;12.13;79.93
33506;BME280;19843;51.040;13.782;2024-03-23T07:08:56;98963.88;;;12.12;80.41
33506;BME280;19843;51.040;13.782;2024-03-23T07:11:23;98980.22;;;12.06;80.18
33506;BME280;19843;51.040;13.782;2024-03-23T07:13:50;98970.19;;;12.01;80.60
33506;BME280;19843;51.040;13.782;2024-03-23T07:16:16;98979.47;;;11.75;81.07
33506;BME280;19843;51.040;13.782;2024-03-23T07:18:42;98966.09;;;11.92;80.08
33506;BME280;19843;51.040;13.782;2024-03-23T07:21:08;98966.41;;;12.27;79.66
33506;BME280;19843;51.040;13.782;2024-03-23T07:23:34;98962.66;;;11.05;84.20
33506;BME280;19843;51.040;13.782;2024-03-23T07:26:02;98935.16;;;11.40;83.13
33506;BME280;19843;51.040;13.782;2024-03-23T07:28:28;98929.38;;;11.60;83.29
33506;BME280;19843;51.040;13.782;2024-03-23T07:31:04;98920.88;;;11.12;85.41
33506;BME280;19843;51.040;13.782;2024-03-23T07:33:30;98925.31;;;11.53;84.35
33506;BME280;19843;51.040;13.782;2024-03-23T07:35:57;98929.59;;;11.10;85.58
33506;BME280;19843;51.040;13.782;2024-03-23T07:38:24;98922.56;;;11.57;83.78
33506;BME280;19843;51.040;13.782;2024-03-23T07:40:50;98897.53;;;12.09;81.44
33506;BME280;19843;51.040;13.782;2024-03-23T07:43:20;98888.06;;;11.79;82.30
33506;BME280;19843;51.040;13.782;2024-03-23T07:45:53;98885.31;;;12.31;80.78
33506;BME280;19843;51.040;13.782;2024-03-23T07:48:18;98881.03;;;12.51;79.88
33506;BME280;19843;51.040;13.782;2024-03-23T07:50:44;98864.34;;;12.69;78.92
33506;BME280;19843;51.040;13.782;2024-03-23T07:53:10;98877.56;;;12.76;78.03
33506;BME280;19843;51.040;13.782;2024-03-23T07:55:36;98868.88;;;12.99;77.31
33506;BME280;19843;51.040;13.782;2024-03-23T07:58:02;98866.97;;;13.21;76.99
33506;BME280;19843;51.040;13.782;2024-03-23T08:00:28;98846.22;;;13.40;76.56
33506;BME280;19843;51.040;13.782;2024-03-23T08:02:54;98841.88;;;13.74;75.35
33506;BME280;19843;51.040;13.782;2024-03-23T08:05:20;98836.59;;;13.30;76.58
33506;BME280;19843;51.040;13.782;2024-03-23T08:07:50;98837.31;;;13.13;76.04
33506;BME280;19843;51.040;13.782;2024-03-23T08:10:17;98830.66;;;13.64;75.92
33506;BME280;19843;51.040;13.782;2024-03-23T08:12:45;98835.00;;;13.25;78.22
33506;BME280;19843;51.040;13.782;2024-03-23T08:15:12;98820.09;;;13.14;76.09
33506;BME280;19843;51.040;13.782;2024-03-23T08:17:37;98814.97;;;13.27;76.58
33506;BME280;19843;51.040;13.782;2024-03-23T08:20:04;98804.19;;;13.61;75.29
33506;BME280;19843;51.040;13.782;2024-03-23T08:22:30;98802.19;;;13.62;74.19
33506;BME280;19843;51.040;13.782;2024-03-23T08:24:56;98790.59;;;13.84;73.54
33506;BME280;19843;51.040;13.782;2024-03-23T08:27:22;98792.56;;;13.98;72.13
33506;BME280;19843;51.040;13.782;2024-03-23T08:29:48;98785.31;;;14.26;73.38
33506;BME280;19843;51.040;13.782;2024-03-23T08:32:14;98780.41;;;14.62;71.22
33506;BME280;19843;51.040;13.782;2024-03-23T08:34:40;98782.94;;;14.24;70.97
33506;BME280;19843;51.040;13.782;2024-03-23T08:37:05;98772.94;;;14.05;73.14
33506;BME280;19843;51.040;13.782;2024-03-23T08:39:32;98765.75;;;13.26;78.94
33506;BME280;19843;51.040;13.782;2024-03-23T08:41:57;98772.91;;;14.16;73.47
33506;BME280;19843;51.040;13.782;2024-03-23T08:44:24;98777.34;;;13.99;73.31
33506;BME280;19843;51.040;13.782;2024-03-23T08:46:49;98784.94;;;14.17;72.60
33506;BME280;19843;51.040;13.782;2024-03-23T08:49:16;98778.94;;;14.04;74.24
33506;BME280;19843;51.040;13.782;2024-03-23T08:51:41;98775.75;;;14.05;73.89
33506;BME280;19843;51.040;13.782;2024-03-23T08:54:08;98778.56;;;13.98;74.70
33506;BME280;19843;51.040;13.782;2024-03-23T08:56:33;98774.13;;;14.15;76.46
33506;BME280;19843;51.040;13.782;2024-03-23T08:58:59;98773.34;;;13.47;79.84
33506;BME280;19843;51.040;13.782;2024-03-23T09:01:25;98773.34;;;13.97;76.32
33506;BME280;19843;51.040;13.782;2024-03-23T09:03:51;98773.38;;;13.65;79.71
33506;BME280;19843;51.040;13.782;2024-03-23T09:06:17;98773.63;;;14.59;76.14
33506;BME280;19843;51.040;13.782;2024-03-23T09:08:43;98774.13;;;14.12;76.56
33506;BME280;19843;51.040;13.782;2024-03-23T09:11:11;98782.97;;;13.67;78.56
33506;BME280;19843;51.040;13.782;2024-03-23T09:13:38;98772.38;;;14.68;74.92
33506;BME280;19843;51.040;13.782;2024-03-23T09:16:05;98774.09;;;15.21;71.94
33506;BME280;19843;51.040;13.782;2024-03-23T09:18:35;98780.41;;;14.69;72.42
33506;BME280;19843;51.040;13.782;2024-03-23T09:21:02;98774.03;;;14.58;73.20
33506;BME280;19843;51.040;13.782;2024-03-23T09:23:28;98771.97;;;14.69;73.18
33506;BME280;19843;51.040;13.782;2024-03-23T09:25:54;98780.16;;;14.03;77.37
33506;BME280;19843;51.040;13.782;2024-03-23T09:28:20;98773.34;;;13.97;78.17
33506;BME280;19843;51.040;13.782;2024-03-23T09:30:46;98781.97;;;14.74;76.11
33506;BME280;19843;51.040;13.782;2024-03-23T09:33:13;98782.53;;;14.08;77.29
33506;BME280;19843;51.040;13.782;2024-03-23T09:35:39;98783.34;;;13.91;76.13
33506;BME280;19843;51.040;13.782;2024-03-23T09:38:06;98788.53;;;14.14;74.83
33506;BME280;19843;51.040;13.782;2024-03-23T09:40:32;98782.53;;;14.08;74.48
33506;BME280;19843;51.040;13.782;2024-03-23T09:42:59;98786.56;;;14.03;73.14
33506;BME280;19843;51.040;13.782;2024-03-23T09:45:29;98827.81;;;13.53;79.50
33506;BME280;19843;51.040;13.782;2024-03-23T09:47:55;98836.50;;;13.01;83.10
33506;BME280;19843;51.040;13.782;2024-03-23T09:50:21;98851.63;;;12.82;84.43
33506;BME280;19843;51.040;13.782;2024-03-23T09:52:48;98868.13;;;13.13;81.51
33506;BME280;19843;51.040;13.782;2024-03-23T09:55:13;98854.28;;;13.59;81.71
33506;BME280;19843;51.040;13.782;2024-03-23T09:57:41;98881.09;;;12.62;83.60
33506;BME280;19843;51.040;13.782;2024-03-23T10:00:06;98907.66;;;12.27;85.86
33506;BME280;19843;51.040;13.782;2024-03-23T10:02:34;98948.19;;;11.29;86.13
33506;BME280;19843;51.040;13.782;2024-03-23T10:05:00;98937.22;;;14.85;69.07
33506;BME280;19843;51.040;13.782;2024-03-23T10:07:27;98938.88;;;14.36;68.32
33506;BME280;19843;51.040;13.782;2024-03-23T10:09:54;98948.50;;;13.96;68.69
33506;BME280;19843;51.040;13.782;2024-03-23T10:12:22;99000.94;;;13.84;68.07
33506;BME280;19843;51.040;13.782;2024-03-23T10:14:47;99031.22;;;12.33;73.13
33506;BME280;19843;51.040;13.782;2024-03-23T10:17:21;99037.09;;;11.84;75.43
33506;BME280;19843;51.040;13.782;2024-03-23T10:19:50;99062.19;;;11.80;79.52
33506;BME280;19843;51.040;13.782;2024-03-23T10:22:21;99081.72;;;11.46;73.01
33506;BME280;19843;51.040;13.782;2024-03-23T10:24:48;99087.03;;;11.55;72.84
33506;BME280;19843;51.040;13.782;2024-03-23T10:27:16;99110.00;;;12.35;71.62
33506;BME280;19843;51.040;13.782;2024-03-23T10:29:43;99128.28;;;11.09;73.64
33506;BME280;19843;51.040;13.782;2024-03-23T10:32:14;99145.66;;;10.75;70.57
33506;BME280;19843;51.040;13.782;2024-03-23T10:34:40;99156.66;;;11.64;68.89
33506;BME280;19843;51.040;13.782;2024-03-23T10:37:07;99170.53;;;11.30;69.43
33506;BME280;19843;51.040;13.782;2024-03-23T10:39:37;99206.03;;;10.84;70.15
33506;BME280;19843;51.040;13.782;2024-03-23T10:42:05;99210.38;;;11.27;69.93
33506;BME280;19843;51.040;13.782;2024-03-23T10:44:32;99247.09;;;10.06;73.40
33506;BME280;19843;51.040;13.782;2024-03-23T10:46:59;99254.97;;;10.58;72.79
33506;BME280;19843;51.040;13.782;2024-03-23T10:49:35;99253.47;;;10.41;71.77
33506;BME280;19843;51.040;13.782;2024-03-23T10:52:04;99270.38;;;10.91;72.15
33506;BME280;19843;51.040;13.782;2024-03-23T10:54:30;99291.88;;;10.13;73.24
33506;BME280;19843;51.040;13.782;2024-03-23T10:57:13;99317.19;;;10.78;76.10
33506;BME280;19843;51.040;13.782;2024-03-23T10:59:40;99324.44;;;10.44;71.70
33506;BME280;19843;51.040;13.782;2024-03-23T11:02:06;99329.56;;;13.90;67.12
33506;BME280;19843;51.040;13.782;2024-03-23T11:04:37;99312.34;;;11.17;70.53
33506;BME280;19843;51.040;13.782;2024-03-23T11:09:48;99342.38;;;10.62;80.43
33506;BME280;19843;51.040;13.782;2024-03-23T11:14:57;99329.91;;;11.83;67.90
33506;BME280;19843;51.040;13.782;2024-03-23T11:17:25;99331.00;;;12.05;68.25
33506;BME280;19843;51.040;13.782;2024-03-23T11:22:39;99318.75;;;12.40;65.36
33506;BME280;19843;51.040;13.782;2024-03-23T11:25:21;99328.13;;;14.80;59.01
33506;BME280;19843;51.040;13.782;2024-03-23T11:27:52;99342.44;;;13.50;63.46
33506;BME280;19843;51.040;13.782;2024-03-23T11:30:25;99337.44;;;9.22;76.15
33506;BME280;19843;51.040;13.782;2024-03-23T11:32:57;99359.47;;;8.71;77.90
33506;BME280;19843;51.040;13.782;2024-03-23T11:35:37;99356.88;;;8.78;82.71
33506;BME280;19843;51.040;13.782;2024-03-23T11:38:12;99371.97;;;8.77;81.63
33506;BME280;19843;51.040;13.782;2024-03-23T11:40:40;99387.81;;;8.61;80.72
33506;BME280;19843;51.040;13.782;2024-03-23T11:43:13;99386.09;;;11.55;68.35
33506;BME280;19843;51.040;13.782;2024-03-23T11:45:42;99392.06;;;11.34;68.38
33506;BME280;19843;51.040;13.782;2024-03-23T11:48:16;99407.56;;;9.87;74.77
33506;BME280;19843;51.040;13.782;2024-03-23T11:50:44;99413.78;;;9.81;75.38
33506;BME280;19843;51.040;13.782;2024-03-23T11:55:45;99408.34;;;10.90;72.11
33506;BME280;19843;51.040;13.782;2024-03-23T11:58:11;99418.09;;;10.25;72.50
33506;BME280;19843;51.040;13.782;2024-03-23T12:00:37;99422.31;;;9.56;75.91
33506;BME280;19843;51.040;13.782;2024-03-23T12:03:04;99413.19;;;9.00;79.32
33506;BME280;19843;51.040;13.782;2024-03-23T12:05:33;99414.38;;;9.42;79.15
33506;BME280;19843;51.040;13.782;2024-03-23T12:08:17;99405.91;;;9.39;76.44
33506;BME280;19843;51.040;13.782;2024-03-23T12:10:44;99400.72;;;8.41;80.43
33506;BME280;19843;51.040;13.782;2024-03-23T12:13:11;99413.63;;;9.02;79.55
33506;BME280;19843;51.040;13.782;2024-03-23T12:15:37;99411.81;;;9.97;75.63
33506;BME280;19843;51.040;13.782;2024-03-23T12:18:09;99401.63;;;9.41;76.44
33506;BME280;19843;51.040;13.782;2024-03-23T12:20:36;99412.13;;;9.04;76.81
33506;BME280;19843;51.040;13.782;2024-03-23T12:23:11;99409.91;;;9.26;77.55
33506;BME280;19843;51.040;13.782;2024-03-23T12:25:38;99407.19;;;9.73;74.85
33506;BME280;19843;51.040;13.782;2024-03-23T12:28:06;99426.06;;;9.20;74.25
33506;BME280;19843;51.040;13.782;2024-03-23T12:30:33;99408.22;;;9.21;73.57
33506;BME280;19843;51.040;13.782;2024-03-23T12:33:00;99418.84;;;10.96;69.79
33506;BME280;19843;51.040;13.782;2024-03-23T12:35:25;99405.84;;;10.85;67.77
33506;BME280;19843;51.040;13.782;2024-03-23T12:37:51;99392.56;;;10.97;70.88
33506;BME280;19843;51.040;13.782;2024-03-23T12:40:17;99391.00;;;11.62;66.47
33506;BME280;19843;51.040;13.782;2024-03-23T12:42:43;99387.69;;;11.14;66.88
33506;BME280;19843;51.040;13.782;2024-03-23T12:45:09;99391.69;;;10.23;67.92
33506;BME280;19843;51.040;13.782;2024-03-23T12:47:35;99401.53;;;9.85;69.39
33506;BME280;19843;51.040;13.782;2024-03-23T12:50:01;99408.03;;;9.73;70.00
33506;BME280;19843;51.040;13.782;2024-03-23T12:52:28;99416.19;;;10.14;69.29
33506;BME280;19843;51.040;13.782;2024-03-23T12:54:57;99424.28;;;10.19;70.36
33506;BME280;19843;51.040;13.782;2024-03-23T12:57:24;99448.59;;;10.03;69.86
33506;BME280;19843;51.040;13.782;2024-03-23T12:59:52;99455.41;;;10.21;69.56
33506;BME280;19843;51.040;13.782;2024-03-23T13:02:22;99450.97;;;9.72;71.93
33506;BME280;19843;51.040;13.782;2024-03-23T13:04:52;99462.41;;;9.67;70.69
33506;BME280;19843;51.040;13.782;2024-03-23T13:07:20;99440.69;;;10.91;66.33
33506;BME280;19843;51.040;13.782;2024-03-23T13:09:46;99430.75;;;9.91;66.73
33506;BME280;19843;51.040;13.782;2024-03-23T13:12:12;99428.03;;;9.63;67.82
33506;BME280;19843;51.040;13.782;2024-03-23T13:14:39;99429.38;;;9.54;67.38
33506;BME280;19843;51.040;13.782;2024-03-23T13:17:06;99426.22;;;9.39;69.37
33506;BME280;19843;51.040;13.782;2024-03-23T13:19:32;99430.16;;;9.98;67.02
33506;BME280;19843;51.040;13.782;2024-03-23T13:22:00;99454.16;;;8.87;68.86
33506;BME280;19843;51.040;13.782;2024-03-23T13:24:26;99479.91;;;9.24;68.61
33506;BME280;19843;51.040;13.782;2024-03-23T13:26:55;99484.44;;;8.88;69.05
33506;BME280;19843;51.040;13.782;2024-03-23T13:29:21;99501.94;;;9.29;69.05
33506;BME280;19843;51.040;13.782;2024-03-23T13:31:49;99514.00;;;9.33;68.76
33506;BME280;19843;51.040;13.782;2024-03-23T13:34:15;99509.59;;;10.51;66.76
33506;BME280;19843;51.040;13.782;2024-03-23T13:36:42;99501.13;;;10.32;65.14
33506;BME280;19843;51.040;13.782;2024-03-23T13:39:08;99514.13;;;9.53;67.73
33506;BME280;19843;51.040;13.782;2024-03-23T13:41:41;99515.31;;;9.95;66.70
33506;BME280;19843;51.040;13.782;2024-03-23T13:44:07;99508.06;;;10.07;66.29
33506;BME280;19843;51.040;13.782;2024-03-23T13:46:35;99483.59;;;10.83;62.95
33506;BME280;19843;51.040;13.782;2024-03-23T13:49:01;99484.00;;;11.20;61.43
33506;BME280;19843;51.040;13.782;2024-03-23T13:51:27;99459.97;;;10.61;63.56
33506;BME280;19843;51.040;13.782;2024-03-23T13:53:54;99460.66;;;10.73;62.48
33506;BME280;19843;51.040;13.782;2024-03-23T13:56:22;99459.78;;;10.69;62.98